Time;durP1;ratioP1;P1;durP2;ratioP2;P2;SDS_P1;SDS_P2;PMS_P1;PMS_P2;Temp;Humidity;BMP_temperature;BMP_pressure;BME280_temperature;BME280_humidity;BME280_pressure;Samples;Min_cycle;Max_cycle;Signal;HPM_P1;HPM_P2
2023/04/22 00:01:14;;;;;;;6.97;4.03;;;22.50;43.30;;;;;;4993188;28;20494;-57
2023/04/22 00:03:43;;;;;;;8.13;3.88;;;22.50;43.30;;;;;;4991938;28;20057;-57
2023/04/22 00:06:11;;;;;;;4.25;3.83;;;22.50;43.30;;;;;;4998978;28;20394;-57
2023/04/22 00:08:38;;;;;;;6.07;3.88;;;22.50;43.30;;;;;;5013330;28;20056;-56
2023/04/22 00:11:05;;;;;;;3.55;3.20;;;22.50;43.30;;;;;;5013381;28;20046;-56
2023/04/22 00:13:32;;;;;;;8.18;4.45;;;22.50;43.30;;;;;;5013368;28;20049;-57
2023/04/22 00:15:59;;;;;;;4.53;3.72;;;22.50;43.30;;;;;;5004743;28;20089;-57
2023/04/22 00:18:26;;;;;;;4.72;3.67;;;22.50;43.30;;;;;;4993456;28;20060;-56
2023/04/22 00:20:54;;;;;;;5.70;3.85;;;22.50;43.30;;;;;;4993242;28;20376;-57
2023/04/22 00:23:21;;;;;;;7.82;4.25;;;22.40;43.30;;;;;;4994250;28;20082;-57
2023/04/22 00:25:48;;;;;;;5.68;4.05;;;22.50;43.40;;;;;;4993389;28;20057;-57
2023/04/22 00:28:15;;;;;;;6.72;3.80;;;22.50;43.30;;;;;;4994020;28;20046;-57
2023/04/22 00:30:42;;;;;;;6.55;3.75;;;22.40;43.30;;;;;;4993429;28;20133;-57
2023/04/22 00:33:09;;;;;;;5.55;3.83;;;22.40;43.30;;;;;;4993269;28;20081;-56
2023/04/22 00:35:36;;;;;;;4.05;3.65;;;22.50;43.30;;;;;;4993221;28;20058;-57
2023/04/22 00:38:03;;;;;;;6.53;4.32;;;22.40;43.30;;;;;;4994200;28;20050;-56
2023/04/22 00:40:31;;;;;;;8.57;4.05;;;22.40;43.30;;;;;;4993916;28;20518;-56
2023/04/22 00:42:59;;;;;;;4.75;3.53;;;22.40;43.30;;;;;;4993747;28;20056;-56
2023/04/22 00:45:26;;;;;;;4.70;3.65;;;22.50;43.30;;;;;;4993715;28;20133;-56
2023/04/22 00:47:53;;;;;;;7.18;4.45;;;22.40;43.30;;;;;;4994033;28;20074;-56
2023/04/22 00:50:20;;;;;;;6.65;4.05;;;22.40;43.30;;;;;;4993416;28;20105;-57
2023/04/22 00:52:48;;;;;;;5.47;3.67;;;22.40;43.30;;;;;;4993689;28;20092;-56
2023/04/22 00:55:15;;;;;;;7.60;3.83;;;22.40;43.30;;;;;;4993393;28;20050;-56
2023/04/22 00:57:43;;;;;;;5.30;3.97;;;22.40;43.40;;;;;;4994223;28;20078;-57
2023/04/22 01:00:11;;;;;;;3.97;3.55;;;22.40;43.40;;;;;;4993430;28;20138;-56
2023/04/22 01:02:38;;;;;;;5.20;3.72;;;22.40;43.40;;;;;;5002333;28;20053;-56
2023/04/22 01:05:08;;;;;;;6.07;4.22;;;22.40;43.40;;;;;;5013112;28;20065;-56
2023/04/22 01:07:35;;;;;;;5.18;3.72;;;22.40;43.50;;;;;;5013231;28;20042;-56
2023/04/22 01:10:03;;;;;;;4.85;3.72;;;22.40;43.50;;;;;;5013153;28;20057;-56
2023/04/22 01:12:31;;;;;;;5.03;3.95;;;22.40;43.50;;;;;;5012857;28;20052;-56
2023/04/22 01:14:58;;;;;;;4.30;3.80;;;22.40;43.50;;;;;;5012802;28;20054;-56
2023/04/22 01:17:27;;;;;;;3.80;3.40;;;22.40;43.50;;;;;;5016952;28;20053;-56
2023/04/22 01:19:54;;;;;;;5.15;3.72;;;22.40;43.50;;;;;;5017146;28;20046;-57
2023/04/22 01:22:22;;;;;;;4.90;3.58;;;22.40;43.40;;;;;;5016239;28;20052;-57
2023/04/22 01:24:50;;;;;;;4.88;3.67;;;22.40;43.40;;;;;;5016271;28;20495;-56
2023/04/22 01:27:17;;;;;;;4.60;3.47;;;22.40;43.40;;;;;;5016736;28;20558;-56
2023/04/22 01:29:44;;;;;;;4.85;3.70;;;22.40;43.40;;;;;;5016424;28;20054;-57
2023/04/22 01:32:12;;;;;;;6.85;3.90;;;22.40;43.30;;;;;;5015678;28;20092;-56
2023/04/22 01:34:39;;;;;;;5.50;3.75;;;22.40;43.20;;;;;;5016552;28;20050;-56
2023/04/22 01:37:06;;;;;;;5.53;3.67;;;22.40;43.20;;;;;;5016689;28;20510;-57
2023/04/22 01:39:34;;;;;;;5.60;3.92;;;22.40;43.20;;;;;;5016418;28;20050;-57
2023/04/22 01:42:02;;;;;;;4.53;3.47;;;22.40;43.20;;;;;;4995290;28;20520;-56
2023/04/22 01:44:29;;;;;;;4.38;3.38;;;22.40;43.20;;;;;;4996893;28;20078;-56
2023/04/22 01:46:57;;;;;;;4.85;3.55;;;22.40;43.20;;;;;;4997237;28;20053;-56
2023/04/22 01:49:24;;;;;;;5.55;3.45;;;22.40;43.20;;;;;;4997099;28;20121;-56
2023/04/22 01:51:51;;;;;;;8.55;3.60;;;22.40;43.20;;;;;;4995662;28;20046;-57
2023/04/22 01:54:18;;;;;;;5.43;3.42;;;22.40;43.20;;;;;;4996629;28;20042;-56
2023/04/22 01:56:52;;;;;;;4.78;3.72;;;22.40;43.20;;;;;;4996414;28;20054;-56
2023/04/22 01:59:20;;;;;;;5.68;3.17;;;22.30;43.20;;;;;;4997058;28;20050;-59
2023/04/22 02:01:47;;;;;;;5.47;3.35;;;22.40;43.20;;;;;;4996547;28;20049;-57
2023/04/22 02:04:15;;;;;;;7.05;4.35;;;22.40;43.20;;;;;;4995423;28;20491;-63
2023/04/22 02:06:42;;;;;;;4.72;3.15;;;22.40;43.20;;;;;;4996481;28;20046;-59
2023/04/22 02:09:09;;;;;;;3.33;3.00;;;22.40;43.20;;;;;;4995893;28;20133;-59
2023/04/22 02:11:36;;;;;;;3.92;3.00;;;22.30;43.10;;;;;;4995953;28;20411;-61
2023/04/22 02:14:03;;;;;;;4.78;3.50;;;22.40;43.20;;;;;;4996686;28;20133;-61
2023/04/22 02:16:30;;;;;;;4.35;3.45;;;22.30;43.10;;;;;;4996231;28;20055;-57
2023/04/22 02:18:59;;;;;;;8.18;4.25;;;22.30;43.10;;;;;;4996170;28;20487;-57
2023/04/22 02:21:28;;;;;;;4.72;3.67;;;22.30;43.20;;;;;;4995652;28;20112;-57
2023/04/22 02:23:55;;;;;;;4.25;3.10;;;22.30;43.20;;;;;;4995662;28;20479;-57
2023/04/22 02:26:24;;;;;;;3.92;2.75;;;22.30;43.10;;;;;;4995627;28;20093;-57
2023/04/22 02:28:52;;;;;;;5.68;2.92;;;22.30;43.20;;;;;;4995268;28;20427;-57
2023/04/22 02:31:19;;;;;;;5.55;3.65;;;22.30;43.20;;;;;;4995975;28;20146;-57
2023/04/22 02:33:46;;;;;;;4.90;3.50;;;22.30;43.20;;;;;;4995257;28;20046;-60
2023/04/22 02:36:13;;;;;;;4.65;3.45;;;22.30;43.20;;;;;;4994430;28;20116;-61
2023/04/22 02:38:40;;;;;;;3.40;2.67;;;22.30;43.20;;;;;;4995927;28;20085;-56
2023/04/22 02:41:08;;;;;;;4.32;3.25;;;22.30;43.20;;;;;;4995788;28;20097;-56
2023/04/22 02:43:35;;;;;;;4.63;3.63;;;22.30;43.20;;;;;;4995696;28;20479;-57
2023/04/22 02:46:02;;;;;;;3.28;2.88;;;22.30;43.20;;;;;;4995746;28;20057;-57
2023/04/22 02:48:29;;;;;;;4.35;3.20;;;22.30;43.20;;;;;;4996084;28;20042;-56
2023/04/22 02:50:56;;;;;;;6.10;3.13;;;22.30;43.20;;;;;;4995854;28;20157;-57
2023/04/22 02:53:23;;;;;;;4.15;3.17;;;22.30;43.30;;;;;;4995487;28;20137;-57
2023/04/22 02:55:51;;;;;;;3.80;2.97;;;22.30;43.30;;;;;;4994949;28;20086;-57
2023/04/22 02:58:18;;;;;;;5.18;3.10;;;22.30;43.30;;;;;;4995349;28;20130;-57
2023/04/22 03:00:45;;;;;;;4.10;3.17;;;22.30;43.30;;;;;;4994143;28;20050;-57
2023/04/22 03:03:13;;;;;;;4.10;3.42;;;22.30;43.30;;;;;;4994850;28;20100;-57
2023/04/22 03:05:40;;;;;;;5.95;2.72;;;22.20;43.30;;;;;;4995408;28;20141;-57
2023/04/22 03:08:07;;;;;;;3.22;2.92;;;22.30;43.40;;;;;;4995331;28;20491;-57
2023/04/22 03:10:34;;;;;;;5.57;2.97;;;22.30;43.40;;;;;;4995358;28;20051;-57
2023/04/22 03:13:02;;;;;;;5.43;3.20;;;22.30;43.40;;;;;;4994257;28;20141;-57
2023/04/22 03:15:29;;;;;;;3.45;2.97;;;22.30;43.40;;;;;;4994584;28;20558;-57
2023/04/22 03:17:56;;;;;;;3.50;2.60;;;22.20;43.30;;;;;;4995001;28;20050;-57
2023/04/22 03:20:23;;;;;;;3.03;2.53;;;22.20;43.30;;;;;;4993646;28;20081;-57
2023/04/22 03:22:51;;;;;;;4.88;3.03;;;22.20;43.30;;;;;;4995200;28;20047;-57
2023/04/22 03:25:18;;;;;;;3.83;3.00;;;22.20;43.30;;;;;;4994173;28;20137;-57
2023/04/22 03:27:45;;;;;;;4.13;3.17;;;22.30;43.30;;;;;;5014584;28;20133;-57
2023/04/22 03:30:12;;;;;;;2.85;2.50;;;22.30;43.20;;;;;;5014774;28;20053;-57
2023/04/22 03:32:39;;;;;;;4.45;3.20;;;22.30;43.20;;;;;;5013342;28;20133;-57
2023/04/22 03:35:06;;;;;;;4.35;2.85;;;22.30;43.20;;;;;;5014230;28;20100;-57
2023/04/22 03:37:34;;;;;;;5.13;2.90;;;22.30;43.20;;;;;;5014901;28;20046;-57
2023/04/22 03:40:01;;;;;;;3.42;2.92;;;22.30;43.20;;;;;;5013808;28;20054;-57
2023/04/22 03:42:28;;;;;;;4.05;2.65;;;22.20;43.20;;;;;;5014024;28;20463;-57
2023/04/22 03:44:55;;;;;;;4.53;2.70;;;22.20;43.10;;;;;;5014495;28;20054;-57
2023/04/22 03:47:22;;;;;;;2.83;2.50;;;22.30;43.20;;;;;;5013671;28;20052;-57
2023/04/22 03:49:49;;;;;;;4.00;2.60;;;22.20;43.20;;;;;;5014018;28;20045;-57
2023/04/22 03:52:16;;;;;;;3.83;2.80;;;22.20;43.10;;;;;;5013111;28;20145;-57
2023/04/22 03:54:44;;;;;;;3.35;2.55;;;22.20;43.10;;;;;;5013749;28;20133;-57
2023/04/22 03:57:11;;;;;;;3.17;2.22;;;22.20;43.10;;;;;;5014376;28;20060;-57
2023/04/22 03:59:38;;;;;;;3.33;2.72;;;22.20;43.10;;;;;;4996092;28;20156;-57
2023/04/22 04:02:06;;;;;;;4.50;2.65;;;22.10;43.10;;;;;;4993681;28;20050;-57
2023/04/22 04:04:34;;;;;;;3.85;2.33;;;22.20;43.10;;;;;;4993532;28;20069;-57
2023/04/22 04:07:01;;;;;;;2.67;2.38;;;22.10;43.10;;;;;;4993311;28;20082;-57
2023/04/22 04:09:29;;;;;;;4.30;3.13;;;22.20;43.20;;;;;;4994847;28;20057;-57
2023/04/22 04:11:56;;;;;;;4.60;2.95;;;22.20;43.10;;;;;;4997792;28;20046;-58
2023/04/22 04:14:24;;;;;;;4.00;2.53;;;22.20;43.10;;;;;;5014205;28;20046;-57
2023/04/22 04:16:51;;;;;;;4.18;2.83;;;22.20;43.10;;;;;;5013589;28;20464;-58
2023/04/22 04:19:18;;;;;;;3.17;2.33;;;22.20;43.10;;;;;;5013316;28;20049;-57
2023/04/22 04:21:45;;;;;;;4.32;2.70;;;22.20;43.10;;;;;;5013604;28;20541;-56
2023/04/22 04:24:12;;;;;;;3.20;2.60;;;22.20;43.10;;;;;;5013633;28;20046;-56
2023/04/22 04:26:40;;;;;;;3.13;2.22;;;22.20;43.00;;;;;;5013579;28;20140;-56
2023/04/22 04:29:07;;;;;;;2.67;2.05;;;22.20;43.00;;;;;;5013886;28;20120;-57
2023/04/22 04:31:34;;;;;;;4.20;2.50;;;22.20;43.00;;;;;;5013499;28;20395;-57
2023/04/22 04:34:02;;;;;;;3.83;2.38;;;22.20;43.00;;;;;;5012648;28;20042;-57
2023/04/22 04:36:31;;;;;;;4.32;2.60;;;22.20;42.90;;;;;;5013754;28;20053;-56
2023/04/22 04:38:58;;;;;;;2.55;2.30;;;22.20;42.90;;;;;;5013819;28;20046;-56
2023/04/22 04:41:27;;;;;;;3.08;2.35;;;22.20;42.90;;;;;;5013215;28;20506;-57
2023/04/22 04:43:55;;;;;;;2.40;2.20;;;22.20;42.90;;;;;;5013423;28;20553;-57
2023/04/22 04:46:22;;;;;;;3.63;2.65;;;22.30;42.90;;;;;;5012707;28;20049;-57
2023/04/22 04:48:50;;;;;;;3.28;2.47;;;22.30;42.80;;;;;;5013792;28;20054;-57
2023/04/22 04:51:17;;;;;;;2.42;1.95;;;22.30;42.80;;;;;;5014830;28;20046;-56
2023/04/22 04:53:46;;;;;;;2.53;2.00;;;22.30;42.80;;;;;;5017339;28;20092;-57
2023/04/22 04:56:13;;;;;;;3.88;2.60;;;22.30;42.80;;;;;;5016827;28;20052;-57
2023/04/22 04:58:40;;;;;;;3.85;2.50;;;22.30;42.80;;;;;;5017331;28;20073;-57
2023/04/22 05:01:07;;;;;;;3.88;2.08;;;22.30;42.80;;;;;;5016692;28;20050;-57
2023/04/22 05:03:35;;;;;;;2.50;2.20;;;22.40;42.80;;;;;;5016385;28;20042;-57
2023/04/22 05:06:03;;;;;;;3.00;2.30;;;22.40;42.80;;;;;;5016618;28;20117;-57
2023/04/22 05:08:30;;;;;;;2.67;2.47;;;22.40;42.80;;;;;;5016693;28;20049;-57
2023/04/22 05:10:57;;;;;;;2.53;2.10;;;22.40;42.70;;;;;;5017034;28;20116;-58
2023/04/22 05:13:26;;;;;;;2.58;2.28;;;22.40;42.70;;;;;;5016776;28;20049;-57
2023/04/22 05:15:53;;;;;;;4.55;2.42;;;22.40;42.70;;;;;;5016748;28;20086;-57
2023/04/22 05:18:21;;;;;;;3.65;2.58;;;22.40;42.70;;;;;;5016408;28;20486;-57
2023/04/22 05:20:48;;;;;;;2.80;2.20;;;22.50;42.70;;;;;;5015950;28;20085;-57
2023/04/22 05:23:15;;;;;;;3.58;2.08;;;22.50;42.70;;;;;;4996722;28;20046;-57
2023/04/22 05:25:42;;;;;;;2.33;2.15;;;22.50;42.60;;;;;;4997109;28;20129;-56
2023/04/22 05:28:09;;;;;;;2.45;2.20;;;22.50;42.60;;;;;;4996201;28;20102;-56
2023/04/22 05:30:37;;;;;;;3.13;2.05;;;22.60;42.60;;;;;;4997101;28;20050;-57
2023/04/22 05:33:04;;;;;;;3.38;2.53;;;22.60;42.60;;;;;;4996343;28;20082;-57
2023/04/22 05:35:31;;;;;;;3.33;2.40;;;22.60;42.60;;;;;;4997245;28;20466;-56
2023/04/22 05:37:58;;;;;;;3.88;2.53;;;22.60;42.60;;;;;;4996583;28;20050;-57
2023/04/22 05:40:25;;;;;;;3.55;2.22;;;22.70;42.70;;;;;;4996897;28;20054;-56
2023/04/22 05:42:52;;;;;;;6.13;2.47;;;22.70;42.70;;;;;;4996758;28;20042;-57
2023/04/22 05:45:19;;;;;;;2.35;2.05;;;22.70;42.70;;;;;;4996636;28;20052;-56
2023/04/22 05:47:47;;;;;;;3.58;2.35;;;22.70;42.70;;;;;;4997065;28;20082;-57
2023/04/22 05:50:14;;;;;;;3.33;2.55;;;22.70;42.70;;;;;;4997001;28;20062;-57
2023/04/22 05:52:41;;;;;;;3.92;3.05;;;22.70;42.70;;;;;;4996997;28;20077;-57
2023/04/22 05:55:08;;;;;;;2.85;2.33;;;22.70;42.70;;;;;;4996996;28;20050;-57
2023/04/22 05:57:35;;;;;;;5.70;2.65;;;22.80;42.80;;;;;;4996712;28;20047;-57
2023/04/22 06:00:04;;;;;;;4.60;2.25;;;22.80;42.70;;;;;;4996747;28;20046;-57
2023/04/22 06:02:31;;;;;;;3.92;2.47;;;22.80;42.70;;;;;;4995766;28;20404;-57
2023/04/22 06:04:59;;;;;;;7.90;3.47;;;22.80;42.70;;;;;;4995950;28;20509;-57
2023/04/22 06:07:26;;;;;;;5.85;2.63;;;22.80;42.60;;;;;;5012236;28;20061;-57
2023/04/22 06:09:53;;;;;;;7.53;2.70;;;22.90;42.70;;;;;;5016321;28;20124;-56
2023/04/22 06:12:31;;;;;;;2.60;2.10;;;22.90;42.60;;;;;;5015501;28;20049;-56
2023/04/22 06:14:58;;;;;;;2.47;2.13;;;22.90;42.60;;;;;;5015921;28;20593;-57
2023/04/22 06:17:25;;;;;;;3.05;2.20;;;22.90;42.60;;;;;;5015497;28;20565;-57
2023/04/22 06:19:53;;;;;;;4.13;2.10;;;22.90;42.60;;;;;;5015526;28;20521;-57
2023/04/22 06:22:20;;;;;;;3.33;2.25;;;22.90;42.50;;;;;;5015718;28;20515;-57
2023/04/22 06:24:47;;;;;;;5.47;2.42;;;22.90;42.50;;;;;;5015921;28;20050;-57
2023/04/22 06:27:15;;;;;;;2.85;2.20;;;23.00;42.50;;;;;;5015713;28;20084;-57
2023/04/22 06:29:42;;;;;;;3.83;2.08;;;23.00;42.50;;;;;;5015847;28;20398;-57
2023/04/22 06:32:09;;;;;;;3.75;1.98;;;23.00;42.40;;;;;;5013297;28;20124;-57
2023/04/22 06:34:37;;;;;;;3.63;2.30;;;23.00;42.40;;;;;;5014300;28;20141;-57
2023/04/22 06:37:05;;;;;;;3.13;2.20;;;23.10;42.40;;;;;;5015524;28;20548;-57
2023/04/22 06:39:32;;;;;;;2.88;2.30;;;23.10;42.30;;;;;;5015464;28;20046;-57
2023/04/22 06:42:00;;;;;;;3.13;1.92;;;23.10;42.30;;;;;;5014219;28;20056;-57
2023/04/22 06:44:28;;;;;;;3.15;2.20;;;23.10;42.20;;;;;;5015358;28;20042;-57
2023/04/22 06:46:55;;;;;;;3.35;2.03;;;23.10;42.20;;;;;;5014696;28;20089;-57
2023/04/22 06:49:24;;;;;;;4.50;2.38;;;23.10;42.20;;;;;;5015357;28;20050;-56
2023/04/22 06:51:52;;;;;;;5.40;2.20;;;23.20;42.20;;;;;;5014715;28;20050;-57
2023/04/22 06:54:19;;;;;;;2.50;2.30;;;23.20;42.20;;;;;;5015114;28;20081;-57
2023/04/22 06:56:47;;;;;;;3.78;2.40;;;23.20;42.10;;;;;;5014055;28;20056;-56
2023/04/22 06:59:15;;;;;;;2.78;1.90;;;23.30;42.10;;;;;;5014523;28;20054;-57
2023/04/22 07:01:42;;;;;;;2.28;1.80;;;23.30;42.00;;;;;;5013686;28;20418;-57
2023/04/22 07:04:09;;;;;;;2.50;2.20;;;23.30;42.00;;;;;;5014833;28;20133;-57
2023/04/22 07:06:36;;;;;;;3.08;2.15;;;23.40;42.00;;;;;;5014259;28;20050;-57
2023/04/22 07:09:04;;;;;;;4.25;2.38;;;23.40;42.00;;;;;;5014397;28;20042;-57
2023/04/22 07:11:31;;;;;;;4.68;2.17;;;23.40;42.00;;;;;;5024320;28;20495;-57
2023/04/22 07:13:58;;;;;;;3.20;1.92;;;23.40;41.90;;;;;;4994350;28;20122;-57
2023/04/22 07:16:27;;;;;;;3.75;2.38;;;23.40;41.80;;;;;;4994911;28;20073;-57
2023/04/22 07:18:54;;;;;;;3.25;2.20;;;23.50;41.80;;;;;;4996304;28;20419;-57
2023/04/22 07:21:21;;;;;;;4.32;1.83;;;23.50;41.80;;;;;;5014481;28;20417;-57
2023/04/22 07:23:49;;;;;;;2.63;2.33;;;23.50;41.70;;;;;;5014465;28;20124;-57
2023/04/22 07:26:16;;;;;;;2.85;2.15;;;23.60;41.70;;;;;;5014362;28;20065;-57
2023/04/22 07:28:43;;;;;;;2.35;1.90;;;23.60;41.60;;;;;;5014631;28;20108;-57
2023/04/22 07:31:10;;;;;;;4.35;2.47;;;23.60;41.60;;;;;;5014755;28;20476;-57
2023/04/22 07:33:37;;;;;;;3.60;2.00;;;23.60;41.60;;;;;;5014329;28;20057;-57
2023/04/22 07:36:05;;;;;;;3.05;2.17;;;23.60;41.60;;;;;;5013702;28;20057;-57
2023/04/22 07:38:32;;;;;;;1.98;1.85;;;23.70;41.60;;;;;;5014636;28;20096;-58
2023/04/22 07:40:59;;;;;;;3.83;2.17;;;23.70;41.60;;;;;;5014315;28;20057;-57
2023/04/22 07:43:26;;;;;;;2.38;1.90;;;23.70;41.50;;;;;;5012084;28;20578;-57
2023/04/22 07:45:53;;;;;;;2.30;2.10;;;23.70;42.10;;;;;;5014493;28;20068;-57
2023/04/22 07:48:21;;;;;;;1.90;1.80;;;23.70;41.50;;;;;;5014266;28;20104;-58
2023/04/22 07:50:48;;;;;;;2.38;2.17;;;23.80;41.50;;;;;;5013950;28;20065;-57
2023/04/22 07:53:16;;;;;;;3.42;2.40;;;23.80;41.50;;;;;;5013159;28;20597;-57
2023/04/22 07:55:43;;;;;;;4.88;2.00;;;23.80;41.40;;;;;;5012197;28;20062;-57
2023/04/22 07:58:11;;;;;;;3.03;2.22;;;23.80;41.40;;;;;;5014372;28;20457;-57
2023/04/22 08:00:39;;;;;;;3.78;2.03;;;23.90;41.40;;;;;;5013708;28;20136;-57
2023/04/22 08:03:06;;;;;;;2.78;1.88;;;23.90;41.30;;;;;;5012349;28;20532;-57
2023/04/22 08:05:33;;;;;;;1.63;1.50;;;23.90;41.20;;;;;;5013334;28;20132;-58
2023/04/22 08:08:01;;;;;;;3.58;2.25;;;23.90;41.10;;;;;;5013873;28;20046;-57
2023/04/22 08:10:28;;;;;;;6.25;2.08;;;23.90;41.10;;;;;;5013462;28;20052;-57
2023/04/22 08:12:55;;;;;;;4.05;2.25;;;23.90;41.00;;;;;;5013626;28;20482;-57
2023/04/22 08:15:22;;;;;;;2.80;1.90;;;23.90;40.90;;;;;;5006176;28;20166;-57
2023/04/22 08:17:50;;;;;;;2.15;1.95;;;24.00;40.90;;;;;;5006225;28;20132;-57
2023/04/22 08:20:17;;;;;;;1.77;1.67;;;24.00;40.90;;;;;;5018015;28;20401;-58
2023/04/22 08:22:44;;;;;;;1.70;1.60;;;24.00;40.80;;;;;;5001844;28;20065;-58
2023/04/22 08:25:11;;;;;;;3.53;2.25;;;24.00;40.80;;;;;;5013425;28;20049;-57
2023/04/22 08:27:39;;;;;;;2.20;2.00;;;24.00;40.80;;;;;;5012773;28;20124;-58
2023/04/22 08:30:06;;;;;;;1.60;1.50;;;24.10;40.80;;;;;;5013594;28;20049;-58
2023/04/22 08:32:34;;;;;;;2.78;1.75;;;24.10;40.80;;;;;;5013062;28;20046;-58
2023/04/22 08:35:01;;;;;;;2.13;1.92;;;24.10;40.70;;;;;;5012935;28;20054;-57
2023/04/22 08:37:31;;;;;;;;;;;24.10;40.70;;;;;;5014011;28;20046;-58
2023/04/22 08:39:58;;;;;;;2.33;1.67;;;24.10;40.60;;;;;;5013215;28;19927;-58
2023/04/22 08:42:26;;;;;;;2.55;2.10;;;24.10;40.60;;;;;;5011960;28;20054;-58
2023/04/22 08:44:53;;;;;;;2.55;1.98;;;24.10;40.60;;;;;;5013396;28;20129;-57
2023/04/22 08:47:21;;;;;;;2.35;1.85;;;24.20;40.60;;;;;;5013629;28;20049;-57
2023/04/22 08:49:52;;;;;;;1.90;1.80;;;24.20;40.60;;;;;;5013280;28;20049;-57
2023/04/22 08:52:20;;;;;;;2.28;1.85;;;24.20;40.50;;;;;;5013657;28;20129;-57
2023/04/22 08:54:47;;;;;;;3.20;1.95;;;24.20;40.50;;;;;;5012778;28;20054;-57
2023/04/22 08:57:15;;;;;;;3.95;1.95;;;24.20;40.40;;;;;;5012671;28;20052;-57
2023/04/22 08:59:42;;;;;;;2.78;1.50;;;24.30;40.50;;;;;;5013245;28;20056;-57
2023/04/22 09:02:19;;;;;;;2.10;1.95;;;24.30;40.40;;;;;;5013093;28;20054;-57
2023/04/22 09:04:48;;;;;;;3.05;2.05;;;24.30;40.40;;;;;;5013016;28;20433;-57
2023/04/22 09:07:23;;;;;;;2.08;1.83;;;24.30;40.30;;;;;;5012488;28;20482;-57
2023/04/22 09:09:53;;;;;;;2.15;1.98;;;24.30;40.30;;;;;;5013413;28;20405;-57
2023/04/22 09:12:21;;;;;;;1.88;1.70;;;24.30;40.30;;;;;;4994551;28;20125;-56
2023/04/22 09:14:48;;;;;;;1.75;1.65;;;24.40;40.30;;;;;;4993174;28;20398;-57
2023/04/22 09:17:17;;;;;;;1.90;1.67;;;24.40;40.30;;;;;;4994012;28;20046;-57
2023/04/22 09:19:45;;;;;;;4.53;2.00;;;24.40;40.30;;;;;;5013125;28;20042;-57
2023/04/22 09:22:14;;;;;;;1.98;1.75;;;24.40;40.30;;;;;;5012402;28;20060;-56
2023/04/22 09:24:51;;;;;;;1.55;1.45;;;24.40;40.20;;;;;;5013115;28;20486;-57
2023/04/22 09:27:20;;;;;;;1.70;1.50;;;24.50;40.30;;;;;;5001095;28;20054;-57
2023/04/22 09:29:51;;;;;;;1.90;1.63;;;24.50;40.30;;;;;;4993557;28;20046;-58
2023/04/22 09:32:19;;;;;;;1.90;1.80;;;24.50;40.30;;;;;;4992909;28;20050;-57
2023/04/22 09:34:52;;;;;;;1.83;1.50;;;24.50;40.20;;;;;;4993184;28;20065;-57
2023/04/22 09:37:23;;;;;;;1.98;1.70;;;24.50;40.20;;;;;;4999541;28;20038;-57
2023/04/22 09:39:52;;;;;;;2.10;1.90;;;24.50;40.40;;;;;;5003375;28;20050;-57
2023/04/22 09:42:20;;;;;;;2.05;1.60;;;24.50;40.20;;;;;;5013726;28;20140;-57
2023/04/22 09:44:52;;;;;;;3.03;1.90;;;24.50;40.10;;;;;;5016163;28;20128;-57
2023/04/22 09:47:22;;;;;;;1.73;1.63;;;24.60;40.20;;;;;;5012668;28;20057;-57
2023/04/22 09:49:49;;;;;;;2.72;1.55;;;24.60;40.10;;;;;;5001254;28;20549;-57
2023/04/22 09:52:23;;;;;;;2.63;1.67;;;24.60;40.10;;;;;;5003400;28;20063;-58
2023/04/22 09:54:51;;;;;;;1.50;1.40;;;24.60;40.00;;;;;;5015827;28;20054;-57
2023/04/22 09:57:18;;;;;;;1.70;1.35;;;24.70;40.00;;;;;;5016573;28;20042;-57
2023/04/22 09:59:45;;;;;;;1.70;1.60;;;24.70;40.00;;;;;;5011650;28;20085;-57
2023/04/22 10:02:13;;;;;;;1.50;1.40;;;24.70;39.90;;;;;;4996090;28;20148;-58
2023/04/22 10:04:41;;;;;;;1.95;1.67;;;24.80;39.90;;;;;;4996436;28;20050;-58
2023/04/22 10:07:08;;;;;;;2.90;2.28;;;24.80;39.90;;;;;;4996810;28;20495;-58
2023/04/22 10:09:36;;;;;;;2.25;1.50;;;24.80;39.80;;;;;;4996747;28;20042;-58
2023/04/22 10:12:04;;;;;;;1.73;1.60;;;24.80;39.80;;;;;;4996393;28;20077;-57
2023/04/22 10:14:31;;;;;;;2.45;1.73;;;24.90;39.80;;;;;;4996320;28;20133;-58
2023/04/22 10:17:01;;;;;;;1.58;1.48;;;24.90;40.00;;;;;;4996089;28;20068;-58
2023/04/22 10:19:30;;;;;;;2.08;1.83;;;24.90;39.80;;;;;;4996098;28;20391;-57
2023/04/22 10:22:01;;;;;;;2.60;1.58;;;24.90;39.80;;;;;;4995775;28;20139;-57
2023/04/22 10:24:34;;;;;;;1.35;1.25;;;24.90;39.80;;;;;;5006574;28;20046;-58
2023/04/22 10:27:05;;;;;;;2.72;1.60;;;24.90;39.80;;;;;;4997310;28;20089;-58
2023/04/22 10:29:41;;;;;;;2.13;1.58;;;24.90;39.80;;;;;;5012014;28;20050;-57
2023/04/22 10:32:30;;;;;;;2.67;1.20;;;24.90;39.80;;;;;;5015099;28;20049;-57
2023/04/22 10:35:11;;;;;;;2.65;1.67;;;24.90;39.80;;;;;;5010447;28;20100;-57
2023/04/22 10:37:41;;;;;;;4.05;1.80;;;24.90;39.80;;;;;;4996405;28;20058;-57
2023/04/22 10:40:12;;;;;;;1.35;1.30;;;24.90;39.80;;;;;;4995744;28;20053;-57
2023/04/22 10:42:40;;;;;;;1.70;1.60;;;24.90;39.70;;;;;;4995788;28;20137;-57
2023/04/22 10:45:12;;;;;;;2.67;1.48;;;25.00;39.80;;;;;;4994740;28;20078;-57
2023/04/22 10:47:40;;;;;;;1.73;1.52;;;25.00;39.70;;;;;;5004858;28;20046;-57
2023/04/22 10:50:27;;;;;;;1.70;1.60;;;25.00;39.60;;;;;;5015050;28;20124;-57
2023/04/22 10:53:16;;;;;;;1.60;1.50;;;25.00;39.60;;;;;;5015057;28;20073;-58
2023/04/22 10:55:53;;;;;;;2.00;1.80;;;25.10;39.60;;;;;;5001042;28;20043;-57
2023/04/22 10:58:21;;;;;;;1.58;1.48;;;25.10;39.60;;;;;;5001480;28;20046;-57
2023/04/22 11:00:57;;;;;;;1.50;1.38;;;25.10;39.50;;;;;;4994835;28;20046;-57
2023/04/22 11:03:26;;;;;;;1.67;1.50;;;25.10;39.60;;;;;;4999208;28;20041;-57
2023/04/22 11:06:16;;;;;;;1.55;1.45;;;25.10;39.50;;;;;;5014413;28;20050;-58
2023/04/22 11:08:45;;;;;;;1.73;1.63;;;25.20;39.50;;;;;;5012562;28;20077;-57
2023/04/22 11:11:13;;;;;;;3.87;1.20;;;25.20;39.50;;;;;;5007023;28;20046;-57
2023/04/22 11:13:42;;;;;;;2.35;1.60;;;25.20;39.50;;;;;;4994796;28;20280;-58
2023/04/22 11:16:13;;;;;;;1.70;1.60;;;25.20;39.50;;;;;;4994073;28;20051;-57
2023/04/22 11:18:46;;;;;;;3.03;1.40;;;25.20;39.50;;;;;;4994644;28;20078;-57
2023/04/22 11:21:13;;;;;;;1.60;1.50;;;25.20;39.40;;;;;;4995322;28;20082;-57
2023/04/22 11:23:53;;;;;;;1.55;1.40;;;25.20;39.30;;;;;;4994607;28;20062;-58
2023/04/22 11:26:34;;;;;;;1.65;1.55;;;25.30;39.40;;;;;;4993963;28;20125;-57
2023/04/22 11:29:01;;;;;;;1.95;1.40;;;25.30;39.30;;;;;;4994983;28;20057;-58
2023/04/22 11:31:28;;;;;;;1.80;1.65;;;25.30;39.30;;;;;;4994386;28;20042;-58
2023/04/22 11:33:58;;;;;;;1.75;1.50;;;25.30;39.30;;;;;;4994438;28;20494;-57
2023/04/22 11:36:26;;;;;;;1.10;1.10;;;25.40;39.30;;;;;;4994388;28;20046;-57
2023/04/22 11:38:55;;;;;;;1.50;1.40;;;25.40;39.30;;;;;;4994321;28;20082;-57
2023/04/22 11:41:22;;;;;;;1.55;1.45;;;25.40;39.30;;;;;;4994990;28;20092;-58
2023/04/22 11:43:49;;;;;;;1.45;1.35;;;25.40;39.20;;;;;;4993948;28;20062;-57
2023/04/22 11:46:28;;;;;;;1.60;1.50;;;25.40;39.20;;;;;;4994266;28;20047;-57
2023/04/22 11:49:11;;;;;;;1.38;1.30;;;25.40;39.20;;;;;;4994453;28;20112;-58
2023/04/22 11:51:52;;;;;;;1.50;1.33;;;25.40;39.20;;;;;;4994469;28;20065;-58
2023/04/22 11:54:31;;;;;;;1.65;1.42;;;25.40;39.20;;;;;;5004218;28;20060;-57
2023/04/22 11:57:05;;;;;;;1.13;1.10;;;25.40;39.20;;;;;;4999079;28;20474;-57
2023/04/22 11:59:32;;;;;;;2.08;1.35;;;25.40;39.20;;;;;;5010743;28;20136;-58
2023/04/22 12:02:03;;;;;;;1.65;1.55;;;25.40;39.20;;;;;;4994391;28;20131;-58
2023/04/22 12:04:39;;;;;;;1.40;1.35;;;25.40;39.20;;;;;;5011992;28;20050;-57
2023/04/22 12:07:06;;;;;;;1.52;1.42;;;25.40;39.20;;;;;;5013353;28;20417;-58
2023/04/22 12:09:34;;;;;;;1.25;1.23;;;25.50;39.80;;;;;;5013920;28;20486;-57
2023/04/22 12:12:03;;;;;;;1.70;1.60;;;25.50;39.30;;;;;;5013227;28;20506;-57
2023/04/22 12:14:34;;;;;;;1.35;1.25;;;25.40;39.20;;;;;;5013511;28;20046;-57
2023/04/22 12:17:07;;;;;;;3.17;1.23;;;25.50;39.30;;;;;;5013660;28;20050;-58
2023/04/22 12:19:36;;;;;;;2.08;1.55;;;25.50;39.30;;;;;;5013739;28;20053;-58
2023/04/22 12:22:03;;;;;;;1.50;1.35;;;25.50;39.20;;;;;;5013437;28;20050;-58
2023/04/22 12:24:30;;;;;;;1.48;1.23;;;25.50;39.20;;;;;;5013586;28;20053;-57
2023/04/22 12:26:57;;;;;;;2.95;1.60;;;25.50;39.20;;;;;;5011816;28;20562;-57
2023/04/22 12:29:32;;;;;;;2.40;1.48;;;25.50;39.20;;;;;;5012505;28;20137;-57
2023/04/22 12:31:59;;;;;;;1.45;1.35;;;25.50;39.20;;;;;;5013476;28;20132;-58
2023/04/22 12:34:27;;;;;;;1.70;1.63;;;25.60;39.20;;;;;;5013564;28;20495;-57
2023/04/22 12:36:55;;;;;;;2.25;1.35;;;25.60;39.20;;;;;;5013075;28;20446;-57
2023/04/22 12:39:22;;;;;;;1.40;1.25;;;25.60;39.20;;;;;;5013834;28;20115;-58
2023/04/22 12:41:49;;;;;;;1.55;1.45;;;25.60;39.20;;;;;;5012580;28;20057;-57
2023/04/22 12:44:17;;;;;;;1.67;1.58;;;25.60;39.20;;;;;;5013659;28;20050;-57
2023/04/22 12:46:45;;;;;;;1.27;1.20;;;25.60;39.20;;;;;;5013006;28;20042;-58
2023/04/22 12:49:13;;;;;;;1.40;1.30;;;25.60;39.20;;;;;;5012792;28;20399;-58
2023/04/22 12:51:40;;;;;;;1.30;1.20;;;25.70;39.80;;;;;;5013283;28;20088;-58
2023/04/22 12:54:07;;;;;;;2.60;1.30;;;25.70;39.20;;;;;;5012865;28;20490;-58